createdAt,value
2018-09-06T00:04:05.850Z,100325.16
2018-09-06T00:14:08.322Z,100320.69
2018-09-06T00:24:10.789Z,100325.28
2018-09-06T00:34:13.205Z,100321.52
2018-09-06T00:44:15.706Z,100313.06
2018-09-06T00:54:18.076Z,100315.95
2018-09-06T01:04:21.069Z,100317.63
2018-09-06T01:14:24.049Z,100304.11
2018-09-06T01:24:26.420Z,100304.73
2018-09-06T01:34:29.333Z,100301.09
2018-09-06T01:44:31.720Z,100295.15
2018-09-06T01:54:34.267Z,100298.50
2018-09-06T02:04:37.231Z,100288.23
2018-09-06T02:14:39.723Z,100283.14
2018-09-06T02:24:42.144Z,100259.84
2018-09-06T02:34:44.589Z,100269.61
2018-09-06T02:44:47.284Z,100244.83
2018-09-06T02:54:50.430Z,100261.30
2018-09-06T03:04:52.900Z,100245.58
2018-09-06T03:14:55.313Z,100242.68
2018-09-06T03:24:58.310Z,100240.02
2018-09-06T03:35:00.719Z,100235.17
2018-09-06T03:45:03.683Z,100229.63
2018-09-06T03:55:06.165Z,100228.53
2018-09-06T04:05:08.733Z,100231.29
2018-09-06T04:15:11.179Z,100232.63
2018-09-06T04:25:13.526Z,100224.19
2018-09-06T04:35:16.063Z,100231.81
2018-09-06T04:45:18.404Z,100230.48
2018-09-06T04:55:21.785Z,100225.75
2018-09-06T05:05:24.033Z,100221.99
2018-09-06T05:15:27.066Z,100224.42
2018-09-06T05:25:30.130Z,100220.79
2018-09-06T05:35:33.170Z,100213.05
2018-09-06T05:45:35.852Z,100216.92
2018-09-06T05:55:38.353Z,100210.55
2018-09-06T06:05:40.833Z,100212.00
2018-09-06T06:15:43.392Z,100214.91
2018-09-06T06:25:45.907Z,100209.86
2018-09-06T06:35:48.365Z,100199.98
2018-09-06T06:45:50.733Z,100183.36
2018-09-06T06:55:53.213Z,100180.82
2018-09-06T07:05:55.704Z,100178.15
2018-09-06T07:15:58.073Z,100184.78
2018-09-06T07:26:00.488Z,100178.02
2018-09-06T07:36:02.929Z,100171.83
2018-09-06T07:46:05.626Z,100172.13
2018-09-06T07:56:08.260Z,100166.30
2018-09-06T08:06:10.724Z,100161.31
2018-09-06T08:16:13.272Z,100150.64
2018-09-06T08:26:15.803Z,100153.84
2018-09-06T08:36:18.395Z,100152.51
2018-09-06T08:46:21.016Z,100146.20
2018-09-06T08:56:23.537Z,100143.30
2018-09-06T09:06:26.041Z,100133.00
2018-09-06T09:16:28.406Z,100120.84
2018-09-06T09:26:30.951Z,100100.47
2018-09-06T09:36:33.941Z,100084.28
2018-09-06T09:56:38.448Z,100072.30
2018-09-06T10:06:46.400Z,100062.12
2018-09-06T10:16:48.905Z,100048.24
2018-09-06T10:26:51.405Z,100040.03
2018-09-06T10:36:53.899Z,100027.73
2018-09-06T10:46:56.224Z,100015.92
2018-09-06T10:56:58.618Z,100001.64
2018-09-06T11:07:01.075Z,99993.01
2018-09-06T11:17:03.748Z,99977.52
2018-09-06T11:27:07.248Z,99986.43
2018-09-06T11:37:09.708Z,99969.31
2018-09-06T11:47:12.231Z,99963.97
2018-09-06T11:57:14.793Z,99951.05
2018-09-06T12:07:17.263Z,99936.23
2018-09-06T12:17:19.761Z,99933.63
2018-09-06T12:27:22.099Z,99928.53
2018-09-06T12:37:24.616Z,99905.06
2018-09-06T12:47:27.212Z,99902.08
2018-09-06T12:57:29.650Z,99887.88
2018-09-06T13:07:32.034Z,99879.30
2018-09-06T13:17:34.527Z,99869.43
2018-09-06T13:27:37.055Z,99851.91
2018-09-06T13:37:39.560Z,99844.64
2018-09-06T13:47:41.898Z,99830.17
2018-09-06T13:57:44.414Z,99820.92
2018-09-06T14:07:46.786Z,99825.45
2018-09-06T14:17:49.302Z,99812.61
2018-09-06T14:27:52.246Z,99797.96
2018-09-06T14:37:55.236Z,99783.91
2018-09-06T14:47:58.179Z,99772.58
2018-09-06T14:58:01.240Z,99763.58
2018-09-06T15:08:04.205Z,99753.06
2018-09-06T15:18:07.226Z,99745.03
2018-09-06T15:28:10.297Z,99741.19
2018-09-06T15:38:13.371Z,99731.63
2018-09-06T15:48:16.385Z,99720.63
2018-09-06T15:58:19.510Z,99714.29
2018-09-06T16:08:22.728Z,99708.91
2018-09-06T16:18:25.833Z,99714.15
2018-09-06T16:28:28.952Z,99716.56
2018-09-06T16:38:32.057Z,99725.20
2018-09-06T16:48:35.213Z,99725.20
2018-09-06T16:58:38.576Z,99729.73
2018-09-06T17:08:41.722Z,99718.91
2018-09-06T17:18:44.768Z,99710.23
2018-09-06T17:28:47.758Z,99714.82
2018-09-06T17:38:51.012Z,99713.25
2018-09-06T17:48:54.125Z,99711.29
2018-09-06T17:58:57.345Z,99708.45
2018-09-06T18:09:00.296Z,99717.84
2018-09-06T18:19:03.233Z,99714.73
2018-09-06T18:29:06.345Z,99712.53
2018-09-06T18:39:09.263Z,99720.42
2018-09-06T18:49:12.212Z,99725.23
2018-09-06T18:59:15.161Z,99738.75
2018-09-06T19:09:18.169Z,99756.47
2018-09-06T19:19:21.033Z,99767.41
2018-09-06T19:29:23.961Z,99755.35
2018-09-06T19:39:26.905Z,99752.31
2018-09-06T19:49:29.842Z,99754.91
2018-09-06T19:59:32.787Z,99745.48
2018-09-06T20:09:35.881Z,99747.13
2018-09-06T20:19:38.848Z,99745.86
2018-09-06T20:29:41.778Z,99753.22
2018-09-06T20:39:44.816Z,99750.84
2018-09-06T20:49:47.860Z,99756.31
2018-09-06T20:59:50.816Z,99743.63
2018-09-06T21:09:54.005Z,99740.91
2018-09-06T21:19:57.047Z,99743.54
2018-09-06T21:30:00.046Z,99728.68
2018-09-06T21:40:03.729Z,99729.73
2018-09-06T21:50:06.948Z,99730.36
2018-09-06T22:00:10.099Z,99734.42
2018-09-06T22:10:13.499Z,99730.36
2018-09-06T22:20:16.628Z,99720.38
2018-09-06T22:30:19.911Z,99716.28
2018-09-06T22:40:23.215Z,99717.41
2018-09-06T22:50:28.751Z,99711.23
2018-09-06T23:00:32.929Z,99699.70
2018-09-06T23:10:36.030Z,99689.34
2018-09-06T23:20:40.265Z,99678.75
2018-09-06T23:30:43.318Z,99683.81
2018-09-06T23:40:51.983Z,99679.80
2018-09-06T23:50:56.751Z,99671.22
